Time;durP1;ratioP1;P1;durP2;ratioP2;P2;SDS_P1;SDS_P2;PMS_P1;PMS_P2;Temp;Humidity;BMP_temperature;BMP_pressure;BME280_temperature;BME280_humidity;BME280_pressure;Samples;Min_cycle;Max_cycle;Signal;HPM_P1;HPM_P2
2022/08/08 00:03:08;;;;;;;2.10;1.60;;;;;;;20.39;42.19;99121.84;6949848;28;20323;-80
2022/08/08 00:06:41;;;;;;;1.60;1.50;;;;;;;20.45;42.16;99111.78;6950388;28;20194;-80
2022/08/08 00:10:06;;;;;;;1.60;1.50;;;;;;;20.90;40.72;99112.16;6949210;28;20212;-80
2022/08/08 00:13:31;;;;;;;2.67;1.40;;;;;;;20.76;41.23;99106.25;6949773;28;20230;-80
2022/08/08 00:17:03;;;;;;;1.60;1.50;;;;;;;20.54;41.34;99100.09;6950276;28;20382;-80
2022/08/08 00:20:31;;;;;;;1.80;1.60;;;;;;;20.58;40.54;99098.47;6950089;28;20278;-80
2022/08/08 00:23:57;;;;;;;1.57;1.47;;;;;;;20.63;41.15;99114.94;6950481;28;20293;-80
2022/08/08 00:27:20;;;;;;;1.43;1.40;;;;;;;20.70;40.94;99088.13;6950612;28;20215;-80
2022/08/08 00:30:46;;;;;;;1.60;1.50;;;;;;;20.60;41.26;99100.94;6950619;28;20207;-80
2022/08/08 00:38:28;;;;;;;1.90;1.60;;;;;;;20.83;40.87;99118.66;6939472;28;20230;-80
2022/08/08 00:42:29;;;;;;;1.10;1.10;;;;;;;20.56;41.40;99118.97;6926962;28;20207;-80
2022/08/08 00:46:10;;;;;;;2.63;1.47;;;;;;;20.80;40.72;99123.03;6950067;28;20211;-80
2022/08/08 00:50:02;;;;;;;1.50;1.40;;;;;;;20.35;41.84;99130.88;6952490;28;20198;-80
2022/08/08 00:53:43;;;;;;;1.43;1.33;;;;;;;20.53;41.61;99131.31;6937207;28;20425;-80
2022/08/08 00:57:37;;;;;;;1.33;1.30;;;;;;;20.87;40.42;99123.63;6947137;28;20585;-80
2022/08/08 01:01:12;;;;;;;2.23;1.93;;;;;;;20.12;42.47;99153.09;6948349;28;20194;-80
2022/08/08 01:05:03;;;;;;;1.67;1.50;;;;;;;20.27;42.36;99142.31;6947429;28;20233;-80
2022/08/08 01:08:57;;;;;;;1.80;1.70;;;;;;;20.05;42.93;99153.25;6918390;28;20242;-80
2022/08/08 01:12:35;;;;;;;2.00;1.77;;;;;;;19.83;42.89;99147.00;6948601;28;20266;-80
2022/08/08 01:16:02;;;;;;;2.20;1.70;;;;;;;19.67;43.56;99131.47;6947568;28;20194;-80
2022/08/08 01:20:10;;;;;;;3.00;1.87;;;;;;;19.46;43.85;99147.88;6947699;28;20268;-80
2022/08/08 01:23:59;;;;;;;1.70;1.60;;;;;;;19.45;44.11;99149.78;6906631;28;20280;-80
2022/08/08 01:28:00;;;;;;;1.83;1.57;;;;;;;19.38;44.17;99153.78;6952906;28;20219;-80
2022/08/08 01:31:53;;;;;;;1.63;1.53;;;;;;;19.16;45.16;99155.66;6952454;28;20313;-80
2022/08/08 01:35:38;;;;;;;1.70;1.60;;;;;;;19.51;44.09;99140.56;6952366;28;20203;-80
2022/08/08 01:39:10;;;;;;;2.40;1.40;;;;;;;19.45;44.06;99132.56;6952079;28;20225;-81
2022/08/08 01:42:34;;;;;;;1.80;1.70;;;;;;;18.78;45.57;99142.75;6952270;28;20246;-81
2022/08/08 01:45:59;;;;;;;1.70;1.60;;;;;;;19.15;44.75;99156.69;6955455;28;20203;-81
2022/08/08 01:49:28;;;;;;;1.90;1.80;;;;;;;18.34;47.04;99151.84;6959572;28;20331;-80
2022/08/08 01:52:55;;;;;;;3.63;1.77;;;;;;;18.96;45.46;99149.84;6959139;28;20225;-80
2022/08/08 01:56:24;;;;;;;3.63;1.80;;;;;;;18.95;45.45;99146.31;6939743;28;20215;-80
2022/08/08 02:00:11;;;;;;;2.00;1.80;;;;;;;19.00;45.38;99134.63;6924693;28;20261;-81
2022/08/08 02:03:41;;;;;;;2.10;1.60;;;;;;;19.32;44.71;99150.16;6925287;28;20228;-80
2022/08/08 02:07:05;;;;;;;2.10;1.70;;;;;;;19.54;43.75;99134.59;6939302;28;20175;-79
2022/08/08 02:10:52;;;;;;;2.00;1.90;;;;;;;19.59;43.66;99145.59;6952878;28;20217;-80
2022/08/08 02:14:19;;;;;;;1.77;1.60;;;;;;;19.81;43.10;99129.97;6926002;28;20346;-81
2022/08/08 02:17:48;;;;;;;2.30;1.70;;;;;;;19.61;43.42;99137.13;6925035;28;20215;-80
2022/08/08 02:25:02;;;;;;;2.27;1.80;;;;;;;19.47;44.34;99125.75;6927343;28;20662;-80
2022/08/08 02:28:39;;;;;;;2.47;2.00;;;;;;;19.68;43.90;99121.34;6925551;28;20212;-80
2022/08/08 02:32:12;;;;;;;2.00;1.80;;;;;;;19.45;44.67;99127.09;6925077;28;20434;-80
2022/08/08 02:35:55;;;;;;;2.30;2.10;;;;;;;19.24;44.87;99123.25;6925626;28;20192;-80
2022/08/08 02:39:48;;;;;;;3.00;1.90;;;;;;;19.14;46.00;99125.81;6924869;28;20230;-81
2022/08/08 02:43:38;;;;;;;2.00;1.90;;;;;;;19.14;46.19;99123.09;6925699;28;20220;-80
2022/08/08 02:47:33;;;;;;;2.03;1.93;;;;;;;19.20;45.42;99130.28;6925858;28;20294;-80
2022/08/08 02:51:25;;;;;;;2.20;2.00;;;;;;;18.62;47.73;99138.13;6918011;28;20221;-80
2022/08/08 02:55:08;;;;;;;1.87;1.77;;;;;;;18.77;47.49;99138.38;6925352;28;20263;-80
2022/08/08 02:59:27;;;;;;;2.00;1.90;;;;;;;19.18;45.95;99145.28;6923036;28;20197;-80
2022/08/08 03:03:07;;;;;;;2.03;1.93;;;;;;;18.59;47.93;99148.72;6926560;28;20231;-80
2022/08/08 03:06:57;;;;;;;2.40;2.20;;;;;;;18.54;48.22;99156.81;6926303;28;20521;-80
2022/08/08 03:10:31;;;;;;;2.40;2.20;;;;;;;18.31;49.14;99159.66;6922257;28;20266;-81
2022/08/08 03:14:26;;;;;;;2.03;1.93;;;;;;;18.72;48.18;99159.31;6922246;28;20235;-80
2022/08/08 03:17:53;;;;;;;3.00;2.13;;;;;;;18.93;47.30;99164.84;6921812;28;20190;-80
2022/08/08 03:21:14;;;;;;;2.50;2.20;;;;;;;18.73;48.26;99166.44;6922339;28;20206;-81
2022/08/08 03:24:37;;;;;;;2.30;2.20;;;;;;;18.64;48.81;99168.75;6922294;28;20259;-80
2022/08/08 03:28:00;;;;;;;3.07;2.23;;;;;;;18.91;47.45;99157.97;6921426;28;20215;-81
2022/08/08 03:35:02;;;;;;;2.20;2.10;;;;;;;18.68;48.00;99180.00;6921654;28;20263;-81
2022/08/08 03:38:23;;;;;;;2.43;2.23;;;;;;;18.72;48.58;99176.53;6921557;28;20296;-80
2022/08/08 03:41:46;;;;;;;2.30;2.20;;;;;;;18.67;48.74;99184.66;6922311;28;20210;-80
2022/08/08 03:45:18;;;;;;;3.43;2.57;;;;;;;17.75;51.22;99181.50;6922343;28;20216;-80
2022/08/08 03:48:40;;;;;;;3.30;2.60;;;;;;;17.47;52.72;99179.56;6923021;28;20202;-80
2022/08/08 03:52:01;;;;;;;2.83;2.33;;;;;;;18.14;50.83;99188.81;6926393;28;20275;-80
2022/08/08 03:55:24;;;;;;;3.63;2.43;;;;;;;18.16;50.28;99165.66;6951457;28;20260;-80
2022/08/08 03:58:50;;;;;;;2.63;2.43;;;;;;;18.48;49.61;99190.59;6949647;28;20834;-81
2022/08/08 04:02:18;;;;;;;2.53;2.33;;;;;;;18.51;49.27;99201.03;6950813;28;20219;-80
2022/08/08 04:05:40;;;;;;;2.67;2.20;;;;;;;18.78;48.59;99197.41;6950061;28;20568;-80
2022/08/08 04:09:04;;;;;;;2.10;2.00;;;;;;;18.80;48.63;99202.63;6949858;28;20289;-80
2022/08/08 04:12:25;;;;;;;3.60;2.40;;;;;;;18.30;49.30;99168.94;6949818;28;20262;-80
2022/08/08 04:15:48;;;;;;;2.97;2.50;;;;;;;17.93;50.92;99170.41;6950080;28;20247;-80
2022/08/08 04:19:10;;;;;;;2.40;2.20;;;;;;;18.32;50.49;99205.03;6949736;28;20288;-80
2022/08/08 04:22:32;;;;;;;2.60;2.40;;;;;;;18.18;49.92;99168.16;6950102;28;20219;-80
2022/08/08 04:25:53;;;;;;;4.10;2.53;;;;;;;18.54;49.65;99203.25;6949170;28;20245;-80
2022/08/08 04:29:15;;;;;;;2.70;2.13;;;;;;;18.65;49.03;99219.59;6948874;28;20598;-80
2022/08/08 04:32:38;;;;;;;2.87;2.67;;;;;;;18.21;51.17;99211.38;6949350;28;20222;-80
2022/08/08 04:35:59;;;;;;;4.33;2.50;;;;;;;18.79;49.08;99215.44;6949982;28;20203;-80
2022/08/08 04:39:21;;;;;;;2.60;2.40;;;;;;;18.49;49.94;99214.06;6949163;28;20802;-83
2022/08/08 04:42:42;;;;;;;2.80;2.60;;;;;;;18.67;49.78;99224.78;6948734;28;20811;-83
2022/08/08 04:46:04;;;;;;;6.13;2.60;;;;;;;18.65;50.19;99226.94;6948545;28;20210;-81
2022/08/08 04:49:27;;;;;;;4.57;2.80;;;;;;;18.66;50.55;99232.16;6944320;28;20199;-80
2022/08/08 04:52:49;;;;;;;3.20;2.90;;;;;;;18.27;51.28;99235.75;6936849;28;20660;-81
2022/08/08 04:56:11;;;;;;;2.90;2.67;;;;;;;18.74;50.52;99236.41;6952221;28;20293;-81
2022/08/08 04:59:32;;;;;;;2.80;2.60;;;;;;;18.85;49.33;99249.97;6954688;28;20196;-81
2022/08/08 05:02:54;;;;;;;3.67;2.93;;;;;;;18.53;51.57;99251.59;6958316;28;20310;-81
2022/08/08 05:06:17;;;;;;;2.80;2.60;;;;;;;18.83;50.16;99241.22;6956878;28;20210;-81
2022/08/08 05:09:39;;;;;;;2.87;2.67;;;;;;;18.78;50.19;99235.66;6955724;28;20257;-83
2022/08/08 05:13:01;;;;;;;4.70;3.40;;;;;;;18.12;52.30;99260.03;6955011;28;20282;-80
2022/08/08 05:16:22;;;;;;;3.33;3.03;;;;;;;18.14;52.90;99252.44;6956733;28;20211;-81
2022/08/08 05:19:44;;;;;;;3.33;3.03;;;;;;;18.52;51.73;99254.56;6955500;28;20203;-80
2022/08/08 05:23:07;;;;;;;3.47;2.67;;;;;;;18.80;50.93;99247.16;6955851;28;20563;-80
2022/08/08 05:26:28;;;;;;;2.70;2.50;;;;;;;19.22;49.79;99251.16;6956627;28;20203;-81
2022/08/08 05:29:50;;;;;;;3.40;3.10;;;;;;;19.61;49.14;99246.53;6947391;28;20203;-82
2022/08/08 05:33:11;;;;;;;3.00;2.80;;;;;;;20.22;47.31;99258.06;6949471;28;20319;-82
2022/08/08 05:36:35;;;;;;;5.63;3.47;;;;;;;20.21;47.63;99261.06;6955701;28;20208;-82
2022/08/08 05:40:03;;;;;;;6.57;3.10;;;;;;;20.01;47.73;99252.56;6961863;28;20279;-80
2022/08/08 05:43:27;;;;;;;6.90;2.70;;;;;;;20.39;47.00;99258.81;6953596;28;20706;-81
2022/08/08 05:46:49;;;;;;;5.13;2.80;;;;;;;20.42;46.93;99263.78;6961947;28;20345;-81
2022/08/08 05:50:11;;;;;;;2.70;2.43;;;;;;;20.51;46.47;99231.28;6951451;28;20231;-81
2022/08/08 05:53:32;;;;;;;3.37;2.80;;;;;;;21.58;43.95;99263.75;6952344;28;20227;-81
2022/08/08 05:56:56;;;;;;;4.77;2.83;;;;;;;21.81;42.81;99257.88;6944268;28;20256;-81
2022/08/08 06:00:18;;;;;;;4.07;2.73;;;;;;;22.13;42.50;99253.91;6928258;28;20674;-79
2022/08/08 06:03:41;;;;;;;7.97;3.17;;;;;;;21.97;42.48;99240.38;6937223;28;20313;-80
2022/08/08 06:07:03;;;;;;;4.07;2.90;;;;;;;22.72;41.51;99268.16;6946508;28;20211;-81
2022/08/08 06:10:25;;;;;;;3.70;2.70;;;;;;;23.52;39.00;99268.19;6951604;28;20210;-81
2022/08/08 06:13:49;;;;;;;2.97;2.67;;;;;;;23.56;39.78;99259.13;6951636;28;20263;-81
2022/08/08 06:17:10;;;;;;;6.10;2.70;;;;;;;23.52;39.63;99266.28;6950724;28;20212;-82
2022/08/08 06:20:32;;;;;;;3.50;2.37;;;;;;;22.79;40.69;99258.56;6951542;28;20199;-81
2022/08/08 06:23:54;;;;;;;2.77;2.57;;;;;;;22.87;40.61;99280.00;6951465;28;20220;-81
2022/08/08 06:27:17;;;;;;;2.50;2.30;;;;;;;23.27;41.07;99277.31;6952066;28;20228;-81
2022/08/08 06:30:42;;;;;;;4.87;2.67;;;;;;;23.32;40.72;99276.47;6951006;28;20202;-84
2022/08/08 06:34:08;;;;;;;3.73;2.30;;;;;;;24.25;38.97;99278.50;6952066;28;20258;-82
2022/08/08 06:37:34;;;;;;;3.30;2.30;;;;;;;24.83;37.21;99259.19;6951946;28;20293;-82
2022/08/08 06:41:05;;;;;;;2.50;2.30;;;;;;;24.90;37.65;99258.88;6952508;28;20213;-82
2022/08/08 06:44:27;;;;;;;4.13;2.50;;;;;;;25.06;36.81;99257.63;6952332;28;20229;-83
2022/08/08 06:47:51;;;;;;;2.30;2.10;;;;;;;25.53;36.04;99277.97;6951048;28;20229;-82
2022/08/08 06:51:14;;;;;;;3.27;2.30;;;;;;;26.27;35.13;99274.72;6952494;28;20305;-82
2022/08/08 06:54:37;;;;;;;2.70;2.33;;;;;;;26.55;34.66;99276.59;6952507;28;20315;-82
2022/08/08 06:57:58;;;;;;;6.63;2.27;;;;;;;27.22;33.79;99259.56;6951273;28;20209;-79
2022/08/08 07:01:20;;;;;;;6.20;2.33;;;;;;;27.07;33.25;99243.97;6952978;28;20257;-80
2022/08/08 07:04:46;;;;;;;2.30;2.10;;;;;;;26.40;34.51;99268.47;6951576;28;20230;-80
2022/08/08 07:08:09;;;;;;;2.57;2.30;;;;;;;27.32;34.11;99285.13;6950121;28;20214;-80
2022/08/08 07:11:32;;;;;;;3.00;2.07;;;;;;;27.10;33.54;99267.47;6950670;28;20207;-80
2022/08/08 07:14:59;;;;;;;2.40;2.20;;;;;;;27.61;33.41;99277.41;6949562;28;20251;-81
2022/08/08 07:18:35;;;;;;;4.10;2.40;;;;;;;27.91;32.42;99276.94;6948708;28;20211;-81
2022/08/08 07:22:04;;;;;;;3.20;2.40;;;;;;;27.72;33.86;99283.63;6950822;28;20230;-81
2022/08/08 07:25:26;;;;;;;5.00;2.50;;;;;;;27.68;33.25;99255.72;6943907;28;20311;-82
2022/08/08 07:28:49;;;;;;;3.57;2.33;;;;;;;28.43;32.23;99270.88;6939142;28;20206;-80
2022/08/08 07:32:11;;;;;;;2.50;2.30;;;;;;;28.03;32.36;99271.69;6949917;28;20254;-79
2022/08/08 07:35:32;;;;;;;5.37;2.83;;;;;;;27.31;34.20;99283.50;6949040;28;20225;-80
2022/08/08 07:38:56;;;;;;;2.70;2.20;;;;;;;28.98;31.73;99280.78;6947575;28;20269;-80
2022/08/08 07:42:18;;;;;;;3.83;2.50;;;;;;;29.36;30.71;99270.16;6949998;28;20760;-80
2022/08/08 07:45:41;;;;;;;2.33;2.17;;;;;;;29.86;30.40;99277.19;6946435;28;20207;-80
2022/08/08 07:49:02;;;;;;;4.93;2.07;;;;;;;29.46;30.67;99279.03;6949588;28;20357;-80
2022/08/08 07:52:24;;;;;;;2.40;2.20;;;;;;;29.46;30.74;99278.22;6947999;28;20240;-80
2022/08/08 07:55:48;;;;;;;4.00;2.37;;;;;;;30.22;30.45;99275.94;6949073;28;20275;-80
2022/08/08 07:59:13;;;;;;;4.33;2.60;;;;;;;30.39;29.90;99276.00;6948638;28;20207;-79
2022/08/08 08:02:38;;;;;;;2.63;2.43;;;;;;;30.52;29.51;99279.78;6949063;28;20226;-81
2022/08/08 08:06:00;;;;;;;4.63;2.50;;;;;;;30.76;29.14;99274.63;6950148;28;20218;-80
2022/08/08 08:09:25;;;;;;;2.27;2.17;;;;;;;31.34;28.50;99286.97;6950013;28;20262;-80
2022/08/08 08:12:52;;;;;;;2.23;2.03;;;;;;;31.73;28.25;99281.19;6949768;28;20223;-79
2022/08/08 08:16:19;;;;;;;2.67;2.27;;;;;;;31.99;27.71;99279.16;6950105;28;20273;-79
2022/08/08 08:19:40;;;;;;;4.00;2.47;;;;;;;31.76;27.53;99279.72;6949136;28;20228;-79
2022/08/08 08:23:02;;;;;;;2.67;2.20;;;;;;;32.00;27.33;99280.81;6950104;28;20242;-79
2022/08/08 08:26:24;;;;;;;2.30;2.10;;;;;;;30.85;28.21;99292.97;6949720;28;20262;-79
2022/08/08 08:29:47;;;;;;;2.30;2.03;;;;;;;31.31;28.37;99278.47;6948029;28;20216;-79
2022/08/08 08:33:08;;;;;;;2.30;2.10;;;;;;;30.91;28.72;99274.16;6949109;28;20705;-79
2022/08/08 08:36:30;;;;;;;3.73;2.20;;;;;;;30.16;30.09;99282.78;6923186;28;20347;-79
2022/08/08 08:39:51;;;;;;;4.80;2.67;;;;;;;30.42;29.77;99277.31;6928910;28;20208;-79
2022/08/08 08:43:14;;;;;;;3.90;2.70;;;;;;;29.43;30.65;99276.88;6925107;28;20374;-78
2022/08/08 08:46:37;;;;;;;2.60;2.17;;;;;;;31.98;27.27;99280.31;6943155;28;20695;-79
2022/08/08 08:49:59;;;;;;;2.10;2.00;;;;;;;32.60;25.84;99275.78;6943033;28;20351;-79
2022/08/08 08:53:21;;;;;;;4.13;1.93;;;;;;;32.26;25.97;99284.34;6936044;28;20655;-78
2022/08/08 08:56:43;;;;;;;2.23;2.00;;;;;;;30.41;27.81;99262.56;6954545;28;20565;-78
2022/08/08 09:00:06;;;;;;;3.53;1.97;;;;;;;30.62;28.15;99290.63;6952843;28;20204;-79
2022/08/08 09:03:30;;;;;;;2.30;2.13;;;;;;;30.54;28.55;99283.88;6942535;28;20222;-79
2022/08/08 09:06:52;;;;;;;2.27;2.00;;;;;;;32.02;26.32;99272.91;6945921;28;20295;-78
2022/08/08 09:10:15;;;;;;;2.87;1.87;;;;;;;32.45;25.30;99267.16;6931496;28;20208;-79
2022/08/08 09:13:37;;;;;;;4.87;1.97;;;;;;;32.06;25.84;99275.84;6946932;28;20604;-78
2022/08/08 09:17:00;;;;;;;3.77;1.80;;;;;;;33.43;23.99;99252.34;6946971;28;20199;-79
2022/08/08 09:20:24;;;;;;;4.23;2.07;;;;;;;33.56;23.27;99256.00;6932974;28;20207;-79
2022/08/08 09:23:46;;;;;;;4.03;1.70;;;;;;;32.78;24.59;99257.00;6947235;28;20361;-79
2022/08/08 09:27:08;;;;;;;1.73;1.63;;;;;;;33.98;22.81;99268.72;6947606;28;20570;-79
2022/08/08 09:30:31;;;;;;;1.97;1.70;;;;;;;34.91;21.56;99273.09;6946620;28;20259;-79
2022/08/08 09:33:54;;;;;;;1.83;1.73;;;;;;;33.92;22.84;99273.75;6946376;28;20649;-79
2022/08/08 09:37:18;;;;;;;3.07;1.80;;;;;;;32.62;24.21;99272.66;6947085;28;20199;-79
2022/08/08 09:40:42;;;;;;;2.13;1.93;;;;;;;32.35;23.32;99275.91;6947169;28;20302;-79
2022/08/08 09:44:13;;;;;;;2.60;1.83;;;;;;;32.34;24.21;99265.91;6952135;28;20246;-78
2022/08/08 09:47:36;;;;;;;3.67;2.03;;;;;;;32.72;24.37;99261.91;6951150;28;20218;-79
2022/08/08 09:50:58;;;;;;;2.03;1.70;;;;;;;33.47;21.79;99224.50;6951985;28;20635;-79
2022/08/08 09:54:25;;;;;;;1.80;1.70;;;;;;;33.91;22.13;99255.28;6951942;28;20223;-79
2022/08/08 09:57:48;;;;;;;1.93;1.83;;;;;;;34.49;21.92;99246.50;6950834;28;20210;-79
2022/08/08 10:01:10;;;;;;;2.67;1.80;;;;;;;33.93;21.19;99239.00;6951339;28;20267;-79
2022/08/08 10:04:34;;;;;;;1.73;1.63;;;;;;;32.76;21.62;99248.09;6952299;28;20445;-79
2022/08/08 10:07:57;;;;;;;3.57;1.60;;;;;;;33.08;20.68;99239.00;6952807;28;20217;-80
2022/08/08 10:11:20;;;;;;;2.13;1.40;;;;;;;31.72;21.82;99248.09;6953726;28;20209;-80
2022/08/08 10:14:42;;;;;;;2.13;1.60;;;;;;;32.38;21.86;99255.72;6950908;28;20241;-79
2022/08/08 10:18:04;;;;;;;2.53;1.70;;;;;;;33.16;20.99;99247.31;6954740;28;20246;-80
2022/08/08 10:21:26;;;;;;;2.43;1.60;;;;;;;33.34;20.96;99236.81;6961289;28;20502;-80
2022/08/08 10:24:48;;;;;;;1.57;1.47;;;;;;;33.06;20.75;99244.91;6951845;28;20226;-81
2022/08/08 10:28:16;;;;;;;1.63;1.50;;;;;;;30.70;22.96;99243.34;6952007;28;20214;-81
2022/08/08 10:35:20;;;;;;;2.03;1.70;;;;;;;33.18;20.17;99236.59;6951497;28;20209;-78
2022/08/08 10:38:42;;;;;;;9.30;7.23;;;;;;;34.33;20.14;99239.16;6950274;28;20617;-83
2022/08/08 10:42:05;;;;;;;20.20;16.90;;;;;;;33.89;20.02;99226.84;6952267;28;20716;-82
2022/08/08 10:45:29;;;;;;;3.90;3.53;;;;;;;32.48;21.09;99246.97;6953156;28;20207;-81
2022/08/08 10:48:50;;;;;;;2.17;1.57;;;;;;;32.29;21.48;99240.97;6952464;28;20218;-80
2022/08/08 10:52:22;;;;;;;1.90;1.30;;;;;;;31.53;21.85;99233.66;6952074;28;20238;-80
2022/08/08 10:55:44;;;;;;;1.33;1.23;;;;;;;32.77;21.57;99233.00;6952955;28;20219;-82
2022/08/08 10:59:08;;;;;;;2.73;1.40;;;;;;;33.58;19.98;99226.53;6951915;28;20641;-79
2022/08/08 11:02:33;;;;;;;2.63;1.50;;;;;;;32.52;21.42;99223.59;6951701;28;20227;-79
2022/08/08 11:05:55;;;;;;;1.77;1.60;;;;;;;32.83;20.17;99232.44;6951718;28;20202;-80
2022/08/08 11:09:16;;;;;;;1.27;1.17;;;;;;;33.37;19.23;99227.75;6952152;28;20207;-81
2022/08/08 11:12:45;;;;;;;2.17;1.70;;;;;;;33.61;19.39;99211.84;6952073;28;20284;-78
2022/08/08 11:16:07;;;;;;;1.80;1.40;;;;;;;34.17;19.05;99207.41;6951613;28;20235;-81
2022/08/08 11:19:32;;;;;;;2.00;1.17;;;;;;;34.45;18.80;99211.16;6944550;28;20259;-79
2022/08/08 11:22:56;;;;;;;2.27;1.50;;;;;;;35.03;17.86;99199.38;6950282;28;20214;-79
2022/08/08 11:26:19;;;;;;;1.20;1.20;;;;;;;34.83;17.56;99201.19;6950838;28;20286;-80
2022/08/08 11:29:41;;;;;;;2.07;1.30;;;;;;;33.17;19.62;99204.22;6950544;28;20203;-79
2022/08/08 11:33:04;;;;;;;1.83;1.13;;;;;;;34.45;18.19;99206.38;6923629;28;20271;-79
2022/08/08 11:36:27;;;;;;;1.93;1.30;;;;;;;32.63;19.79;99210.06;6941800;28;20234;-79
2022/08/08 11:39:49;;;;;;;4.70;1.43;;;;;;;33.93;18.76;99193.38;6950437;28;20230;-79
2022/08/08 11:43:11;;;;;;;1.50;1.37;;;;;;;32.80;19.94;99188.44;6951755;28;20226;-79
2022/08/08 11:46:33;;;;;;;1.50;1.40;;;;;;;32.49;19.62;99196.34;6952128;28;20660;-80
2022/08/08 11:49:57;;;;;;;1.50;1.40;;;;;;;32.27;20.52;99193.88;6950424;28;20839;-79
2022/08/08 11:53:21;;;;;;;1.40;1.30;;;;;;;33.42;19.08;99194.78;6951592;28;20277;-79
2022/08/08 11:56:42;;;;;;;1.40;1.27;;;;;;;33.92;18.76;99188.97;6952208;28;20234;-80
2022/08/08 12:00:07;;;;;;;2.60;1.23;;;;;;;34.57;18.19;99175.56;6956925;28;20198;-78
2022/08/08 12:03:33;;;;;;;4.20;1.10;;;;;;;34.69;17.89;99189.53;6949111;28;20337;-79
2022/08/08 12:07:03;;;;;;;1.80;1.40;;;;;;;35.28;17.23;99179.34;6949344;28;20656;-79
2022/08/08 12:10:29;;;;;;;2.23;1.13;;;;;;;35.35;17.43;99178.69;6949016;28;20222;-80
2022/08/08 12:13:50;;;;;;;1.20;1.20;;;;;;;33.67;17.99;99185.28;6949091;28;20219;-79
2022/08/08 12:17:12;;;;;;;1.30;1.10;;;;;;;33.39;18.55;99161.94;6949739;28;20203;-79
2022/08/08 12:20:43;;;;;;;2.27;1.50;;;;;;;34.21;17.70;99175.56;6948520;28;20206;-79
2022/08/08 12:24:06;;;;;;;1.97;1.50;;;;;;;32.12;19.49;99183.25;6948854;28;20234;-79
2022/08/08 12:27:39;;;;;;;1.20;1.10;;;;;;;34.93;17.47;99175.47;6948995;28;20247;-79
2022/08/08 12:31:05;;;;;;;2.33;1.27;;;;;;;35.32;16.90;99173.81;6949083;28;20206;-79
2022/08/08 12:34:41;;;;;;;1.30;1.20;;;;;;;35.98;16.16;99170.03;6948856;28;20249;-80
2022/08/08 12:38:06;;;;;;;2.57;1.20;;;;;;;35.93;16.46;99159.06;6947820;28;20550;-79
2022/08/08 12:41:28;;;;;;;1.30;1.20;;;;;;;35.54;16.72;99153.59;6946949;28;20203;-79
2022/08/08 12:45:02;;;;;;;2.13;1.03;;;;;;;35.82;16.58;99159.94;6949091;28;20333;-79
2022/08/08 12:48:25;;;;;;;4.33;1.37;;;;;;;35.77;16.72;99152.63;6948707;28;20387;-78
2022/08/08 12:51:49;;;;;;;1.73;1.20;;;;;;;35.43;16.46;99146.88;6948147;28;20234;-80
2022/08/08 12:55:12;;;;;;;1.40;1.30;;;;;;;34.51;17.58;99153.72;6949090;28;20246;-78
2022/08/08 12:58:43;;;;;;;3.00;1.53;;;;;;;34.43;17.50;99132.28;6947282;28;20206;-78
2022/08/08 13:02:06;;;;;;;1.70;1.60;;;;;;;34.70;17.36;99151.94;6946521;28;20257;-79
2022/08/08 13:05:29;;;;;;;3.43;1.10;;;;;;;35.77;16.37;99161.06;6947345;28;20220;-79
2022/08/08 13:08:52;;;;;;;3.50;1.37;;;;;;;36.04;16.56;99160.16;6952854;28;20230;-79
2022/08/08 13:12:17;;;;;;;3.73;1.40;;;;;;;36.05;16.56;99133.69;6947704;28;20329;-79
2022/08/08 13:15:40;;;;;;;3.50;1.40;;;;;;;36.13;16.28;99129.88;6942906;28;20227;-79
2022/08/08 13:19:06;;;;;;;1.60;1.33;;;;;;;34.95;17.18;99142.28;6925284;28;20211;-79
2022/08/08 13:22:27;;;;;;;3.57;1.50;;;;;;;34.74;17.56;99130.44;6946109;28;20227;-79
2022/08/08 13:25:49;;;;;;;2.37;1.50;;;;;;;34.26;17.85;99138.13;6952599;28;20218;-79
2022/08/08 13:29:13;;;;;;;1.33;1.23;;;;;;;33.93;18.31;99134.63;6954121;28;20616;-78
2022/08/08 13:32:36;;;;;;;1.47;1.30;;;;;;;34.00;17.85;99134.84;6953949;28;20568;-79
2022/08/08 13:36:00;;;;;;;2.10;1.30;;;;;;;34.94;18.22;99140.66;6951685;28;20235;-80
2022/08/08 13:39:22;;;;;;;1.70;1.60;;;;;;;35.23;17.22;99134.72;6950898;28;20206;-79
2022/08/08 13:42:44;;;;;;;1.77;1.60;;;;;;;34.61;17.48;99086.81;6946806;28;20231;-79
2022/08/08 13:46:10;;;;;;;2.10;1.50;;;;;;;34.69;17.57;99113.88;6954557;28;20245;-80
2022/08/08 13:49:32;;;;;;;1.97;1.47;;;;;;;34.83;17.42;99121.91;6922950;28;20295;-80
2022/08/08 13:52:55;;;;;;;1.33;1.30;;;;;;;34.40;17.99;99125.41;6924506;28;20454;-80
2022/08/08 13:56:16;;;;;;;1.50;1.40;;;;;;;35.25;17.62;99123.16;6924561;28;20227;-79
2022/08/08 13:59:41;;;;;;;1.47;1.30;;;;;;;34.88;17.70;99107.63;6940740;28;20280;-79
2022/08/08 14:03:02;;;;;;;1.50;1.40;;;;;;;35.24;17.60;99102.69;6923970;28;20771;-79
2022/08/08 14:06:24;;;;;;;1.60;1.40;;;;;;;34.95;17.35;99103.03;6938901;28;20563;-79
2022/08/08 14:09:47;;;;;;;1.60;1.50;;;;;;;34.73;17.44;99108.38;6962258;28;20202;-79
2022/08/08 14:13:11;;;;;;;2.20;1.50;;;;;;;33.49;18.77;99110.31;6978907;28;20229;-79
2022/08/08 14:16:32;;;;;;;2.37;1.40;;;;;;;33.20;19.05;99116.84;6950272;28;20903;-79
2022/08/08 14:20:01;;;;;;;1.27;1.13;;;;;;;34.45;17.95;99099.13;6950930;28;20681;-80
2022/08/08 14:23:24;;;;;;;3.07;1.33;;;;;;;35.30;16.78;99098.44;6951245;28;20215;-79
2022/08/08 14:26:46;;;;;;;1.90;1.30;;;;;;;35.02;16.55;99080.00;6951603;28;20237;-79
2022/08/08 14:30:10;;;;;;;3.30;1.30;;;;;;;35.47;16.67;99094.47;6951027;28;20781;-79
2022/08/08 14:33:32;;;;;;;1.67;1.23;;;;;;;35.84;16.20;99096.66;6951726;28;20598;-80
2022/08/08 14:36:53;;;;;;;3.83;1.20;;;;;;;36.11;15.90;99100.50;6951689;28;20253;-79
2022/08/08 14:40:20;;;;;;;1.30;1.20;;;;;;;35.66;16.33;99086.16;6929903;28;20215;-79
2022/08/08 14:43:47;;;;;;;1.40;1.30;;;;;;;35.54;16.58;99097.47;6936653;28;20290;-79
2022/08/08 14:47:09;;;;;;;1.67;1.50;;;;;;;35.80;16.82;99092.16;6944156;28;20296;-80
2022/08/08 14:50:32;;;;;;;1.37;1.17;;;;;;;35.63;16.38;99081.25;6924702;28;20250;-80
2022/08/08 14:53:57;;;;;;;2.07;1.37;;;;;;;34.84;17.33;99079.50;6923889;28;20227;-80
2022/08/08 14:57:19;;;;;;;1.30;1.20;;;;;;;34.84;17.23;99071.09;6926461;28;20306;-80
2022/08/08 15:00:42;;;;;;;2.27;1.40;;;;;;;35.24;17.14;99085.88;6950178;28;20278;-79
2022/08/08 15:04:05;;;;;;;1.10;1.10;;;;;;;35.22;16.95;99079.78;6951006;28;20301;-79
2022/08/08 15:07:26;;;;;;;1.93;1.17;;;;;;;34.53;16.57;99081.34;6950256;28;20207;-79
2022/08/08 15:10:48;;;;;;;2.57;1.37;;;;;;;35.51;15.40;99073.78;6950390;28;20211;-79
2022/08/08 15:14:10;;;;;;;2.20;1.10;;;;;;;34.98;15.94;99082.72;6950739;28;20218;-79
2022/08/08 15:17:33;;;;;;;1.63;0.90;;;;;;;35.09;15.28;99085.81;6948382;28;20308;-80
2022/08/08 15:20:54;;;;;;;1.30;1.10;;;;;;;35.41;15.48;99073.47;6949604;28;20292;-80
2022/08/08 15:24:16;;;;;;;2.80;1.40;;;;;;;34.97;16.08;99030.63;6950300;28;20782;-80
2022/08/08 15:27:37;;;;;;;2.80;1.10;;;;;;;34.77;16.25;99081.28;6949359;28;20707;-79
2022/08/08 15:30:59;;;;;;;2.53;1.10;;;;;;;34.30;16.64;99081.06;6928659;28;20212;-80
2022/08/08 15:34:22;;;;;;;6.07;1.13;;;;;;;33.05;17.75;99081.19;6921081;28;20279;-79
2022/08/08 15:37:44;;;;;;;1.93;1.30;;;;;;;33.94;17.03;99078.31;6942293;28;20223;-80
2022/08/08 15:41:05;;;;;;;5.27;1.57;;;;;;;33.87;17.16;99086.47;6949295;28;20231;-80
2022/08/08 15:44:27;;;;;;;3.13;1.07;;;;;;;33.66;17.18;99063.38;6950047;28;20219;-79
2022/08/08 15:47:49;;;;;;;1.30;1.20;;;;;;;34.31;16.55;99073.50;6948283;28;20234;-79
2022/08/08 15:51:13;;;;;;;1.23;1.13;;;;;;;34.43;17.00;99079.88;6947965;28;20266;-77
2022/08/08 15:54:35;;;;;;;2.40;1.43;;;;;;;34.77;16.15;99075.69;6943702;28;20226;-77
2022/08/08 15:57:56;;;;;;;3.67;1.40;;;;;;;35.34;16.19;99082.53;6948605;28;20231;-78
2022/08/08 16:01:18;;;;;;;1.70;1.20;;;;;;;34.99;16.66;99080.72;6948440;28;20215;-77
2022/08/08 16:04:40;;;;;;;2.03;1.10;;;;;;;35.01;16.31;99076.38;6948894;28;20223;-77
2022/08/08 16:08:04;;;;;;;2.00;1.03;;;;;;;33.82;16.58;99081.13;6946982;28;20660;-78
2022/08/08 16:11:25;;;;;;;1.20;1.10;;;;;;;33.21;17.31;99072.97;6938842;28;20283;-77
2022/08/08 16:14:47;;;;;;;1.53;1.13;;;;;;;33.70;16.88;99080.25;6947193;28;20231;-76
2022/08/08 16:18:08;;;;;;;1.63;1.00;;;;;;;33.89;17.58;99066.56;6947348;28;20230;-78
2022/08/08 16:21:32;;;;;;;3.37;1.10;;;;;;;33.86;16.53;99081.22;6948015;28;20264;-78
2022/08/08 16:24:55;;;;;;;3.30;1.07;;;;;;;33.17;16.90;99078.44;6947513;28;20751;-78
2022/08/08 16:28:18;;;;;;;2.20;1.03;;;;;;;32.87;17.20;99079.75;6944904;28;20294;-77